createdAt,value
2022-11-01T00:44:48.135Z,9.27
2022-11-01T00:47:49.823Z,7.17
2022-11-01T00:50:51.777Z,7.80
2022-11-01T00:53:53.428Z,6.97
2022-11-01T00:56:55.087Z,7.27
2022-11-01T00:59:56.752Z,7.27
2022-11-01T01:02:58.469Z,7.10
2022-11-01T01:06:00.283Z,6.80
2022-11-01T01:09:02.091Z,6.37
2022-11-01T01:12:04.056Z,7.40
2022-11-01T01:15:06.489Z,7.07
2022-11-01T01:18:08.418Z,6.83
2022-11-01T01:21:10.221Z,7.00
2022-11-01T01:24:12.082Z,6.83
2022-11-01T01:27:14.960Z,5.33
2022-11-01T01:30:16.833Z,4.77
2022-11-01T01:33:18.455Z,5.57
2022-11-01T01:36:20.237Z,4.00
2022-11-01T01:39:21.957Z,3.70
2022-11-01T01:42:33.954Z,3.93
2022-11-01T01:45:41.279Z,3.10
2022-11-01T01:48:46.336Z,3.30
2022-11-01T01:51:48.369Z,2.83
2022-11-01T01:54:51.073Z,3.17
2022-11-01T01:57:54.156Z,2.83
2022-11-01T02:00:56.296Z,2.67
2022-11-01T02:03:58.392Z,2.83
2022-11-01T02:07:00.783Z,3.50
2022-11-01T02:10:03.783Z,3.13
2022-11-01T02:13:15.022Z,3.50
2022-11-01T02:16:42.056Z,3.03
2022-11-01T02:20:28.228Z,3.40
2022-11-01T02:23:41.856Z,2.30
2022-11-01T02:27:08.665Z,3.17
2022-11-01T02:30:15.600Z,2.67
2022-11-01T02:33:28.232Z,2.83
2022-11-01T02:36:55.670Z,2.43
2022-11-01T02:40:05.465Z,2.53
2022-11-01T02:43:15.891Z,3.10
2022-11-01T02:46:37.750Z,2.47
2022-11-01T02:49:42.945Z,2.93
2022-11-01T02:52:45.187Z,2.50
2022-11-01T02:55:46.847Z,2.53
2022-11-01T02:58:49.918Z,2.47
2022-11-01T03:02:03.585Z,2.30
2022-11-01T03:05:44.870Z,2.23
2022-11-01T03:08:54.308Z,2.50
2022-11-01T03:12:04.642Z,2.73
2022-11-01T03:15:20.772Z,2.83
2022-11-01T03:19:03.386Z,2.63
2022-11-01T03:22:13.838Z,2.37
2022-11-01T03:25:41.700Z,2.27
2022-11-01T03:28:49.248Z,2.10
2022-11-01T03:31:53.227Z,2.73
2022-11-01T03:34:57.023Z,2.17
2022-11-01T03:38:07.024Z,2.60
2022-11-01T03:41:14.557Z,2.30
2022-11-01T03:44:17.208Z,2.50
2022-11-01T03:47:19.031Z,2.73
2022-11-01T03:50:26.218Z,2.83
2022-11-01T03:53:27.920Z,2.27
2022-11-01T03:56:29.561Z,2.40
2022-11-01T03:59:31.301Z,2.40
2022-11-01T04:02:32.936Z,2.23
2022-11-01T04:05:36.637Z,2.07
2022-11-01T04:08:38.346Z,2.60
2022-11-01T04:11:39.996Z,2.43
2022-11-01T04:15:00.333Z,2.67
2022-11-01T04:18:35.056Z,2.77
2022-11-01T04:21:37.488Z,2.77
2022-11-01T04:24:39.184Z,2.30
2022-11-01T04:27:40.822Z,2.17
2022-11-01T04:30:43.802Z,2.23
2022-11-01T04:33:45.458Z,2.40
2022-11-01T04:36:47.092Z,2.10
2022-11-01T04:39:48.718Z,2.00
2022-11-01T04:42:50.368Z,2.83
2022-11-01T04:45:55.811Z,2.93
2022-11-01T04:48:57.464Z,2.30
2022-11-01T04:51:59.132Z,2.30
2022-11-01T04:55:00.775Z,1.97
2022-11-01T04:58:03.107Z,1.80
2022-11-01T05:01:06.420Z,2.47
2022-11-01T05:04:08.175Z,1.83
2022-11-01T05:07:09.883Z,2.03
2022-11-01T05:10:11.892Z,2.50
2022-11-01T05:13:13.611Z,2.30
2022-11-01T05:16:19.324Z,1.80
2022-11-01T05:19:21.618Z,2.10
2022-11-01T05:22:23.279Z,2.73
2022-11-01T05:25:25.053Z,2.40
2022-11-01T05:28:26.752Z,2.17
2022-11-01T05:31:28.489Z,2.93
2022-11-01T05:34:30.335Z,1.87
2022-11-01T05:37:32.124Z,2.50
2022-11-01T05:40:33.982Z,2.00
2022-11-01T05:43:35.605Z,2.27
2022-11-01T05:46:37.383Z,2.00
2022-11-01T05:49:39.017Z,2.20
2022-11-01T05:52:41.141Z,1.70
2022-11-01T05:55:42.764Z,2.00
2022-11-01T05:58:46.144Z,1.87
2022-11-01T06:01:47.924Z,1.63
2022-11-01T06:04:49.654Z,2.00
2022-11-01T06:07:51.356Z,1.80
2022-11-01T06:10:53.380Z,1.37
2022-11-01T06:13:59.071Z,1.70
2022-11-01T06:17:00.711Z,1.30
2022-11-01T06:20:02.451Z,1.70
2022-11-01T06:23:11.477Z,1.30
2022-11-01T06:26:13.278Z,1.13
2022-11-01T06:29:15.041Z,1.50
2022-11-01T06:32:16.675Z,1.20
2022-11-01T06:35:18.384Z,1.63
2022-11-01T06:38:20.049Z,1.13
2022-11-01T06:41:21.769Z,1.17
2022-11-01T06:44:23.417Z,0.80
2022-11-01T06:47:25.342Z,0.70
2022-11-01T06:50:27.158Z,1.07
2022-11-01T06:53:29.390Z,1.13
2022-11-01T06:56:31.123Z,1.10
2022-11-01T06:59:32.867Z,1.20
2022-11-01T07:02:34.693Z,0.77
2022-11-01T07:05:37.822Z,1.00
2022-11-01T07:08:39.623Z,0.60
2022-11-01T07:11:41.389Z,0.70
2022-11-01T07:14:43.105Z,0.70
2022-11-01T07:17:46.730Z,0.60
2022-11-01T07:20:48.509Z,0.90
2022-11-01T07:23:52.594Z,0.70
2022-11-01T07:26:54.234Z,0.70
2022-11-01T07:29:55.956Z,0.80
2022-11-01T07:33:02.932Z,0.60
2022-11-01T07:36:05.317Z,0.53
2022-11-01T07:39:07.106Z,0.80
2022-11-01T07:42:08.803Z,0.47
2022-11-01T07:45:13.185Z,0.77
2022-11-01T07:48:17.803Z,0.60
2022-11-01T07:51:19.533Z,0.70
2022-11-01T07:54:21.253Z,0.37
2022-11-01T07:57:22.955Z,0.40
2022-11-01T08:00:24.927Z,0.50
2022-11-01T08:03:26.637Z,0.43
2022-11-01T08:06:28.343Z,0.67
2022-11-01T08:09:30.063Z,0.57
2022-11-01T08:12:31.739Z,0.87
2022-11-01T08:15:34.253Z,0.57
2022-11-01T08:18:35.999Z,1.00
2022-11-01T08:21:37.655Z,0.40
2022-11-01T08:24:39.375Z,0.73
2022-11-01T08:27:41.053Z,1.07
2022-11-01T08:30:44.322Z,1.00
2022-11-01T08:33:46.416Z,1.27
2022-11-01T08:36:48.172Z,1.07
2022-11-01T08:39:49.875Z,0.93
2022-11-01T08:42:52.029Z,1.10
2022-11-01T08:45:53.742Z,1.50
2022-11-01T08:49:00.391Z,0.80
2022-11-01T08:52:02.172Z,1.03
2022-11-01T08:55:04.093Z,0.73
2022-11-01T08:58:06.585Z,0.70
2022-11-01T09:01:08.604Z,0.60
2022-11-01T09:04:10.423Z,0.87
2022-11-01T09:07:12.088Z,0.83
2022-11-01T09:10:14.175Z,1.27
2022-11-01T09:13:15.837Z,0.73
2022-11-01T09:16:17.540Z,0.70
2022-11-01T09:19:19.610Z,0.87
2022-11-01T09:22:21.479Z,0.73
2022-11-01T09:25:23.147Z,1.10
2022-11-01T09:28:25.616Z,1.03
2022-11-01T09:31:29.859Z,1.07
2022-11-01T09:34:31.634Z,1.73
2022-11-01T09:37:33.357Z,1.87
2022-11-01T09:40:44.012Z,1.10
2022-11-01T09:43:46.764Z,1.13
2022-11-01T09:47:29.071Z,1.40
2022-11-01T09:50:34.781Z,1.33
2022-11-01T09:53:36.534Z,1.20
2022-11-01T09:56:48.167Z,1.70
2022-11-01T10:00:05.615Z,1.33
2022-11-01T10:06:19.354Z,1.30
2022-11-01T10:09:45.048Z,1.50
2022-11-01T10:13:07.428Z,1.53
2022-11-01T10:16:15.129Z,1.00
2022-11-01T10:19:18.981Z,1.10
2022-11-01T10:22:40.954Z,1.27
2022-11-01T10:25:51.213Z,1.33
2022-11-01T10:29:04.854Z,1.10
2022-11-01T10:32:24.259Z,1.00
2022-11-01T10:35:40.447Z,1.10
2022-11-01T10:42:15.337Z,1.37
2022-11-01T10:45:19.222Z,1.77
2022-11-01T10:48:38.308Z,0.63
2022-11-01T10:51:41.996Z,1.23
2022-11-01T10:54:44.871Z,1.20
2022-11-01T10:58:03.732Z,1.30
2022-11-01T11:01:09.848Z,1.30
2022-11-01T11:04:17.506Z,1.40
2022-11-01T11:07:24.009Z,1.47
2022-11-01T11:10:28.863Z,1.07
2022-11-01T11:13:31.629Z,1.03
2022-11-01T11:16:42.681Z,1.40
2022-11-01T11:19:46.740Z,1.20
2022-11-01T11:22:48.499Z,1.50
2022-11-01T11:25:50.650Z,1.13
2022-11-01T11:28:56.374Z,0.93
2022-11-01T11:32:00.150Z,1.10
2022-11-01T11:35:19.128Z,1.53
2022-11-01T11:38:40.338Z,1.40
2022-11-01T11:41:44.288Z,0.93
2022-11-01T11:44:55.731Z,1.20
2022-11-01T11:48:16.717Z,1.13
2022-11-01T11:51:20.647Z,1.00
2022-11-01T11:54:31.437Z,1.30
2022-11-01T11:57:34.271Z,0.98
2022-11-01T12:00:37.728Z,1.40
2022-11-01T12:03:53.718Z,0.70
2022-11-01T12:06:55.513Z,1.45
2022-11-01T12:10:03.130Z,1.23
2022-11-01T12:13:36.829Z,1.15
2022-11-01T12:16:42.608Z,1.10
2022-11-01T12:19:44.486Z,0.77
2022-11-01T12:23:14.019Z,1.15
2022-11-01T12:26:18.278Z,1.30
2022-11-01T12:29:30.085Z,1.10
2022-11-01T12:32:49.229Z,0.68
2022-11-01T12:35:54.570Z,1.23
2022-11-01T12:39:12.789Z,1.15
2022-11-01T12:42:22.519Z,1.10
2022-11-01T12:45:45.507Z,1.27
2022-11-01T12:48:54.586Z,0.95
2022-11-01T12:52:03.076Z,1.45
2022-11-01T12:55:35.991Z,1.40
2022-11-01T12:58:38.103Z,1.00
2022-11-01T13:01:42.741Z,1.08
2022-11-01T13:05:08.116Z,1.42
2022-11-01T13:08:35.610Z,1.10
2022-11-01T13:11:48.968Z,1.02
2022-11-01T13:15:05.238Z,1.30
2022-11-01T13:18:23.668Z,1.00
2022-11-01T13:32:03.751Z,1.00
2022-11-01T13:35:42.757Z,1.30
2022-11-01T13:38:53.788Z,1.02
2022-11-01T13:42:11.558Z,1.03
2022-11-01T13:45:13.152Z,1.13
2022-11-01T13:48:36.957Z,0.97
2022-11-01T13:51:38.680Z,1.00
2022-11-01T13:55:03.562Z,0.90
2022-11-01T13:58:06.147Z,1.07
2022-11-01T14:01:35.355Z,1.37
2022-11-01T14:04:38.267Z,0.90
2022-11-01T14:07:45.641Z,1.13
2022-11-01T14:10:48.625Z,1.37
2022-11-01T14:13:50.294Z,0.93
2022-11-01T14:16:52.007Z,1.70
2022-11-01T14:19:56.349Z,1.10
2022-11-01T14:22:58.840Z,1.20
2022-11-01T14:26:18.625Z,1.00
2022-11-01T14:29:20.315Z,1.60
2022-11-01T14:32:26.522Z,1.37
2022-11-01T14:35:33.404Z,1.23
2022-11-01T14:38:40.509Z,0.70
2022-11-01T14:41:44.569Z,0.90
2022-11-01T14:44:50.518Z,0.90
2022-11-01T14:47:56.126Z,1.20
2022-11-01T14:51:23.908Z,1.03
2022-11-01T14:54:48.635Z,1.10
2022-11-01T14:57:50.495Z,0.90
2022-11-01T15:00:55.271Z,0.83
2022-11-01T15:03:59.937Z,0.83
2022-11-01T15:07:01.698Z,1.13
2022-11-01T15:10:05.275Z,0.80
2022-11-01T15:13:07.212Z,0.97
2022-11-01T15:16:26.594Z,1.23
2022-11-01T15:19:33.816Z,0.90
2022-11-01T15:22:35.527Z,1.10
2022-11-01T15:25:37.507Z,1.30
2022-11-01T15:29:01.306Z,0.90
2022-11-01T15:32:03.544Z,0.80
2022-11-01T15:35:21.013Z,0.77
2022-11-01T15:38:23.448Z,0.70
2022-11-01T15:41:29.247Z,0.97
2022-11-01T15:44:30.910Z,0.60
2022-11-01T15:47:34.554Z,0.90
2022-11-01T15:50:40.090Z,1.13
2022-11-01T15:53:43.019Z,1.17
2022-11-01T15:56:51.297Z,1.13
2022-11-01T16:00:29.691Z,0.90
2022-11-01T16:03:42.469Z,0.80
2022-11-01T16:06:57.376Z,1.00
2022-11-01T16:10:03.359Z,1.20
2022-11-01T16:13:05.679Z,1.03
2022-11-01T16:16:11.558Z,1.03
2022-11-01T16:19:34.491Z,1.10
2022-11-01T16:22:45.313Z,1.10
2022-11-01T16:26:00.172Z,1.57
2022-11-01T16:29:01.802Z,1.03
2022-11-01T16:32:10.043Z,1.20
2022-11-01T16:35:31.871Z,1.30
2022-11-01T16:38:33.496Z,0.97
2022-11-01T16:41:39.924Z,0.83
2022-11-01T16:44:44.140Z,1.47
2022-11-01T16:47:45.779Z,1.20
2022-11-01T16:50:47.459Z,1.10
2022-11-01T16:53:50.359Z,6.27
2022-11-01T16:56:54.466Z,1.40
2022-11-01T16:59:56.464Z,1.67
2022-11-01T17:02:59.373Z,2.73
2022-11-01T17:06:01.019Z,1.63
2022-11-01T17:09:02.818Z,1.57
2022-11-01T17:12:04.559Z,1.33
2022-11-01T17:15:06.542Z,1.63
2022-11-01T17:18:13.967Z,1.63
2022-11-01T17:21:15.709Z,1.70
2022-11-01T17:24:20.716Z,1.60
2022-11-01T17:27:22.431Z,1.60
2022-11-01T17:30:24.344Z,0.93
2022-11-01T17:33:26.025Z,1.60
2022-11-01T17:36:27.739Z,1.53
2022-11-01T17:39:30.291Z,1.40
2022-11-01T17:42:31.924Z,1.37
2022-11-01T17:45:33.573Z,1.30
2022-11-01T17:48:35.218Z,1.20
2022-11-01T17:51:36.869Z,1.07
2022-11-01T17:54:38.627Z,1.40
2022-11-01T17:57:41.282Z,1.33
2022-11-01T18:00:43.424Z,1.20
2022-11-01T18:03:45.257Z,1.40
2022-11-01T18:06:46.919Z,1.23
2022-11-01T18:09:49.452Z,1.67
2022-11-01T18:12:55.947Z,1.10
2022-11-01T18:16:21.057Z,0.97
2022-11-01T18:19:41.911Z,1.30
2022-11-01T18:22:52.993Z,1.10
2022-11-01T18:25:54.739Z,1.23
2022-11-01T18:29:14.145Z,1.13
2022-11-01T18:32:42.087Z,1.20
2022-11-01T18:35:54.835Z,1.57
2022-11-01T18:39:20.222Z,1.13
2022-11-01T18:42:22.719Z,1.00
2022-11-01T18:45:33.079Z,1.47
2022-11-01T18:48:41.935Z,1.20
2022-11-01T18:51:44.405Z,1.47
2022-11-01T18:54:53.592Z,1.50
2022-11-01T18:57:59.299Z,1.13
2022-11-01T19:01:31.598Z,1.13
2022-11-01T19:04:35.659Z,1.10
2022-11-01T19:07:57.411Z,1.20
2022-11-01T19:10:59.105Z,1.00
2022-11-01T19:14:02.156Z,1.13
2022-11-01T19:17:04.180Z,1.30
2022-11-01T19:20:34.264Z,1.47
2022-11-01T19:23:37.909Z,1.20
2022-11-01T19:26:42.462Z,1.40
2022-11-01T19:29:44.173Z,1.33
2022-11-01T19:32:45.891Z,1.97
2022-11-01T19:35:53.632Z,1.20
2022-11-01T19:38:55.286Z,1.10
2022-11-01T19:42:14.912Z,1.83
2022-11-01T19:45:29.893Z,1.50
2022-11-01T19:48:32.235Z,1.17
2022-11-01T19:51:35.272Z,1.57
2022-11-01T19:54:39.920Z,1.30
2022-11-01T19:57:44.876Z,1.37
2022-11-01T20:00:47.095Z,1.30
2022-11-01T20:03:55.303Z,1.43
2022-11-01T20:07:01.277Z,1.37
2022-11-01T20:10:06.132Z,1.30
2022-11-01T20:13:07.774Z,0.97
2022-11-01T20:16:09.483Z,1.87
2022-11-01T20:19:13.288Z,1.30
2022-11-01T20:22:19.308Z,1.27
2022-11-01T20:25:21.035Z,1.40
2022-11-01T20:28:22.845Z,1.73
2022-11-01T20:31:26.305Z,1.30
2022-11-01T20:34:28.688Z,1.27
2022-11-01T20:37:31.047Z,1.10
2022-11-01T20:40:32.837Z,1.10
2022-11-01T20:43:34.743Z,1.20
2022-11-01T20:46:36.394Z,1.10
2022-11-01T20:49:38.063Z,1.20
2022-11-01T20:52:40.375Z,1.20
2022-11-01T20:55:43.117Z,1.67
2022-11-01T20:58:44.787Z,1.60
2022-11-01T21:01:46.573Z,1.20
2022-11-01T21:04:55.652Z,1.50
2022-11-01T21:08:05.823Z,1.00
2022-11-01T21:11:19.970Z,1.57
2022-11-01T21:14:22.994Z,1.40
2022-11-01T21:17:24.721Z,1.40
2022-11-01T21:20:27.262Z,1.23
2022-11-01T21:23:35.376Z,2.10
2022-11-01T21:26:39.923Z,1.10
2022-11-01T21:29:44.644Z,1.10
2022-11-01T21:32:47.101Z,0.80
2022-11-01T21:35:53.275Z,0.90
2022-11-01T21:38:58.155Z,1.40
2022-11-01T21:42:29.462Z,1.73
2022-11-01T21:45:32.594Z,1.80
2022-11-01T21:48:34.255Z,1.27
2022-11-01T21:51:35.932Z,0.90
2022-11-01T21:54:39.471Z,1.53
2022-11-01T21:57:41.144Z,1.53
2022-11-01T22:00:42.791Z,0.90
2022-11-01T22:03:44.476Z,1.27
2022-11-01T22:06:47.845Z,1.20
2022-11-01T22:09:49.500Z,1.20
2022-11-01T22:12:51.278Z,1.37
2022-11-01T22:15:52.991Z,1.90
2022-11-01T22:18:54.688Z,1.10
2022-11-01T22:21:56.458Z,1.80
2022-11-01T22:24:58.162Z,1.00
2022-11-01T22:27:59.835Z,1.30
2022-11-01T22:31:01.487Z,1.30
2022-11-01T22:34:03.171Z,0.97
2022-11-01T22:37:14.527Z,1.47
2022-11-01T22:40:16.824Z,1.33
2022-11-01T22:43:19.157Z,1.73
2022-11-01T22:46:26.711Z,1.33
2022-11-01T22:49:30.232Z,0.80
2022-11-01T22:52:36.793Z,1.20
2022-11-01T22:55:41.412Z,1.07
2022-11-01T22:58:43.967Z,1.40
2022-11-01T23:01:45.792Z,1.20
2022-11-01T23:04:47.899Z,1.50
2022-11-01T23:07:52.276Z,1.57
2022-11-01T23:10:54.266Z,0.90
2022-11-01T23:14:14.425Z,0.97
2022-11-01T23:17:34.505Z,1.37
2022-11-01T23:20:36.847Z,1.00
2022-11-01T23:23:43.709Z,1.43
2022-11-01T23:26:45.428Z,1.10
2022-11-01T23:29:49.559Z,1.53
2022-11-01T23:32:51.649Z,1.10
2022-11-01T23:35:58.150Z,1.03
2022-11-01T23:39:13.569Z,1.20
2022-11-01T23:42:20.037Z,1.00
2022-11-01T23:45:32.196Z,1.17
2022-11-01T23:48:34.093Z,1.40
2022-11-01T23:51:36.292Z,2.03
2022-11-01T23:54:43.472Z,1.50
2022-11-01T23:57:45.539Z,2.00
